Karup, Denmark

04:49 PM CET on Februar 27, 2017 (GMT +0100)
Karup Air Base | | Change Station

Elev 171 ft 56.28 °N, 9.13 °E | Updated 11 minutes ago

Light Rain
Let regn
46 ° F
Føles som 44 ° F
N
6
Vind Skiftende Vind Syd

I dag
Høj -- | Lav -- ° F
--% Risiko for nedbør
I går
Høj -- | Lav -- ° F
Precip. -- tommer
Tryk 29.27 tommer
Sigtbarhed 6.2 mil
Skyer Delvis skyet 900 ft
Vindeffekt 44 ° F
Dugpunkt 45 ° F
Luftfugtighed 93%
Regnmængde 0.00 tommer
Snedybde Ikke tilgængelig.
7:20 AM 5:53 PM
Nymåne, 1% visible
SPECI EKKA 271538Z AUTO 19005KT 150V220 9999NDV -RA BKN009/// 08/07 Q0991 TEMPO 6000 RA BKN010
Tryk 29.27 tommer
Sigtbarhed 6.2 mil
Skyer Delvis skyet 900 ft
Vindeffekt 44 ° F
Dugpunkt 45 ° F
Luftfugtighed 93%
Regnmængde 0.00 tommer
Snedybde Ikke tilgængelig.
7:20 AM 5:53 PM
Nymåne, 1% visible
SPECI EKKA 271538Z AUTO 19005KT 150V220 9999NDV -RA BKN009/// 08/07 Q0991 TEMPO 6000 RA BKN010

Get Your Daily Forecast Email!

Thanks for signing up!

Be on the lookout for a verification email in your inbox.

You'll start receiving the daily forecast at 8 AM.

×

10-Day Weather Forecast

×

Almanac

Astronomi

Feb. 27, 2017 Opgang Nedgang
Faktisktidspunkt
Civilttusmørke
Nautisktusmørke
Astronomisktusmørke
Måne
Synligtlys’ længde
Dagens længde
Tomorrow will be .
, % of the Moon is Illuminated

Ekstremer i dag

Country Highs Country Lows

Community

WunderPhotos

Upload Photos

1,962,540 Billeder uploaded!

WunderBlog® & News

Nearby

Luftkvalitet

  Luftkvalitet AQ-indeks Forureningskilder
Not available.

Snedybde

Station Depth Højde

Jordskælvsaktivitet

By Distance Mag. Time & Date
Minimum magnitude displayed is 2.5.

Kystnære vandtemperaturer

Sted Temperatur

Stations

Vejrstationer i nærheden

Stationenssted Temp. Vindeffekt Dugpunkt Luftfugtighed Vind Precip. Elev Opdateret Type